Time;durP1;ratioP1;P1;durP2;ratioP2;P2;SDS_P1;SDS_P2;PMS_P1;PMS_P2;Temp;Humidity;BMP_temperature;BMP_pressure;BME280_temperature;BME280_humidity;BME280_pressure;Samples;Min_cycle;Max_cycle;Signal;HPM_P1;HPM_P2
2023/08/28 00:01:22;;;;;;;2.60;1.00;;;;;;;16.08;100.00;100421.81;5109617;27;20059;-66
2023/08/28 00:03:56;;;;;;;1.85;0.90;;;;;;;16.08;100.00;100429.75;5103536;28;20052;-66
2023/08/28 00:06:25;;;;;;;2.57;0.90;;;;;;;16.08;100.00;100428.91;5096144;28;20135;-66
2023/08/28 00:08:58;;;;;;;1.95;0.90;;;;;;;16.22;100.00;100433.25;5105113;28;20146;-66
2023/08/28 00:11:27;;;;;;;1.52;0.80;;;;;;;16.26;100.00;100426.84;5089632;28;20059;-66
2023/08/28 00:13:56;;;;;;;1.42;0.80;;;;;;;16.32;100.00;100426.44;5101579;28;20109;-67
2023/08/28 00:16:26;;;;;;;2.47;1.10;;;;;;;16.22;100.00;100428.84;5098348;28;20056;-66
2023/08/28 00:18:55;;;;;;;2.15;0.95;;;;;;;16.02;100.00;100402.88;5094625;28;20733;-66
2023/08/28 00:21:25;;;;;;;3.28;1.05;;;;;;;15.99;100.00;100435.63;5105303;28;20071;-66
2023/08/28 00:23:55;;;;;;;1.73;1.00;;;;;;;16.04;100.00;100433.53;5103643;28;20043;-66
2023/08/28 00:26:23;;;;;;;3.30;1.10;;;;;;;15.91;100.00;100424.72;5109190;28;20407;-66
2023/08/28 00:29:02;;;;;;;3.20;1.13;;;;;;;15.87;100.00;100421.44;5098482;28;20054;-66
2023/08/28 00:31:33;;;;;;;5.35;1.40;;;;;;;15.85;100.00;100418.03;5105298;28;20131;-66
2023/08/28 00:34:00;;;;;;;3.05;1.20;;;;;;;15.82;100.00;100412.13;5098505;28;20101;-67
2023/08/28 00:36:26;;;;;;;3.97;1.10;;;;;;;15.86;100.00;100409.16;5090175;28;20488;-66
2023/08/28 00:38:53;;;;;;;3.53;1.10;;;;;;;15.92;100.00;100423.78;5103140;28;20481;-66
2023/08/28 00:41:20;;;;;;;3.38;1.00;;;;;;;15.87;100.00;100421.44;5097290;28;20043;-66
2023/08/28 00:43:48;;;;;;;4.75;0.95;;;;;;;15.81;100.00;100424.47;5105462;28;20068;-66
2023/08/28 00:46:15;;;;;;;3.20;1.20;;;;;;;15.83;100.00;100416.44;5098082;28;20043;-66
2023/08/28 00:48:47;;;;;;;5.55;1.30;;;;;;;15.82;100.00;100415.59;5106329;28;20142;-66
2023/08/28 00:51:18;;;;;;;5.35;1.45;;;;;;;15.70;100.00;100411.91;5097225;28;20048;-66
2023/08/28 00:53:48;;;;;;;4.25;1.30;;;;;;;15.77;100.00;100420.31;5100902;28;20497;-66
2023/08/28 00:56:18;;;;;;;5.47;1.17;;;;;;;15.90;100.00;100415.97;5088536;28;20048;-66
2023/08/28 00:58:46;;;;;;;5.03;1.30;;;;;;;15.75;100.00;100404.59;5107942;28;20047;-66
2023/08/28 01:01:21;;;;;;;6.82;1.33;;;;;;;15.99;100.00;100426.84;5105796;28;20042;-66
2023/08/28 01:03:52;;;;;;;6.40;1.80;;;;;;;15.89;100.00;100426.63;5090305;28;20143;-66
2023/08/28 01:06:42;;;;;;;3.90;1.65;;;;;;;15.95;100.00;100428.84;5090504;28;20064;-66
2023/08/28 01:09:27;;;;;;;3.17;1.10;;;;;;;15.88;100.00;100424.91;5100127;28;20489;-66
2023/08/28 01:11:57;;;;;;;5.07;1.30;;;;;;;16.02;100.00;100429.28;5108265;28;20048;-66
2023/08/28 01:14:28;;;;;;;2.75;1.08;;;;;;;16.06;100.00;100429.00;5095058;28;20063;-66
2023/08/28 01:17:00;;;;;;;3.45;1.17;;;;;;;16.04;100.00;100430.03;5108147;28;20054;-66
2023/08/28 01:19:38;;;;;;;4.25;1.20;;;;;;;15.93;100.00;100430.75;5105991;28;20062;-66
2023/08/28 01:22:11;;;;;;;5.25;1.23;;;;;;;15.92;100.00;100435.19;5106581;28;20071;-66
2023/08/28 01:24:45;;;;;;;3.70;1.33;;;;;;;15.91;100.00;100437.91;5096571;28;20045;-66
2023/08/28 01:27:13;;;;;;;4.75;1.33;;;;;;;15.93;100.00;100434.22;5092412;28;20056;-66
2023/08/28 01:29:40;;;;;;;8.70;2.03;;;;;;;15.73;100.00;100446.03;5110330;28;20051;-66
2023/08/28 01:32:07;;;;;;;7.70;1.63;;;;;;;15.72;100.00;100449.63;5106331;28;20389;-67
2023/08/28 01:34:35;;;;;;;4.38;1.30;;;;;;;15.64;100.00;100437.88;5098481;28;20044;-66
2023/08/28 01:37:13;;;;;;;5.15;1.25;;;;;;;15.86;100.00;100446.13;5097806;28;20067;-66
2023/08/28 01:39:45;;;;;;;6.85;1.42;;;;;;;15.84;100.00;100453.28;5110233;28;20054;-66
2023/08/28 01:42:13;;;;;;;8.80;1.70;;;;;;;15.81;100.00;100450.00;5102962;28;20465;-66
2023/08/28 01:44:41;;;;;;;4.72;1.45;;;;;;;15.77;100.00;100453.81;5113179;28;20051;-66
2023/08/28 01:47:09;;;;;;;5.72;2.08;;;;;;;15.82;100.00;100454.34;5127926;27;20508;-66
2023/08/28 01:49:37;;;;;;;7.20;1.75;;;;;;;15.75;100.00;100443.34;5111805;28;20055;-67
2023/08/28 01:52:04;;;;;;;3.58;1.30;;;;;;;15.77;100.00;100435.31;5106547;28;20397;-67
2023/08/28 01:54:32;;;;;;;4.30;1.60;;;;;;;15.78;100.00;100429.13;5098788;28;20051;-66
2023/08/28 01:57:00;;;;;;;4.95;1.45;;;;;;;15.90;100.00;100441.50;5118799;27;20059;-66
2023/08/28 01:59:27;;;;;;;6.40;1.52;;;;;;;15.67;100.00;100432.38;5096888;28;20052;-66
2023/08/28 02:01:53;;;;;;;5.63;1.20;;;;;;;15.55;100.00;100434.03;5098823;28;20366;-66
2023/08/28 02:04:20;;;;;;;3.50;1.23;;;;;;;15.53;100.00;100425.38;5111221;28;20126;-67
2023/08/28 02:06:47;;;;;;;6.47;1.60;;;;;;;15.60;100.00;100439.88;5111043;27;20553;-67
2023/08/28 02:09:14;;;;;;;5.95;1.80;;;;;;;15.54;100.00;100425.25;5097768;28;20036;-67
2023/08/28 02:11:42;;;;;;;3.65;1.30;;;;;;;15.63;100.00;100441.44;5095528;28;20538;-67
2023/08/28 02:14:10;;;;;;;6.43;1.73;;;;;;;15.33;100.00;100447.69;5112621;28;20430;-66
2023/08/28 02:16:38;;;;;;;8.60;1.60;;;;;;;15.25;100.00;100434.16;5125605;27;20578;-66
2023/08/28 02:19:06;;;;;;;7.40;1.80;;;;;;;15.43;100.00;100454.09;5127315;27;20043;-66
2023/08/28 02:21:34;;;;;;;5.32;1.60;;;;;;;15.21;100.00;100438.78;5111577;28;20044;-67
2023/08/28 02:24:00;;;;;;;5.22;1.77;;;;;;;15.31;100.00;100449.59;5111412;28;20062;-67
2023/08/28 02:26:27;;;;;;;5.43;1.60;;;;;;;15.30;100.00;100458.47;5111907;28;20138;-67
2023/08/28 02:28:54;;;;;;;7.80;1.80;;;;;;;15.27;100.00;100446.28;5112140;28;20420;-67
2023/08/28 02:31:20;;;;;;;5.80;1.90;;;;;;;15.23;100.00;100443.94;5110317;28;20139;-67
2023/08/28 02:33:47;;;;;;;7.90;1.60;;;;;;;15.16;100.00;100446.97;5108504;28;20151;-67
2023/08/28 02:36:14;;;;;;;7.95;1.73;;;;;;;15.12;100.00;100442.81;5099291;28;20051;-66
2023/08/28 02:38:40;;;;;;;7.00;1.70;;;;;;;15.15;100.00;100453.16;5110509;28;20131;-66
2023/08/28 02:41:07;;;;;;;5.50;1.52;;;;;;;15.15;100.00;100447.88;5111102;28;20057;-67
2023/08/28 02:43:34;;;;;;;6.60;1.65;;;;;;;14.98;100.00;100450.72;5095977;28;20401;-67
2023/08/28 02:46:01;;;;;;;8.27;1.63;;;;;;;14.77;100.00;100444.97;5111578;28;20058;-67
2023/08/28 02:48:28;;;;;;;11.50;2.05;;;;;;;14.67;100.00;100438.53;5111413;28;20051;-66
2023/08/28 02:50:55;;;;;;;6.75;1.95;;;;;;;14.85;100.00;100455.03;5111926;28;20246;-67
2023/08/28 02:53:22;;;;;;;8.60;2.75;;;;;;;14.68;100.00;100448.13;5099621;28;20507;-67
2023/08/28 02:56:23;;;;;;;8.80;1.95;;;;;;;14.86;100.00;100451.47;5098217;28;20051;-67
2023/08/28 02:58:51;;;;;;;10.15;2.00;;;;;;;14.83;100.00;100449.00;5100414;28;20108;-66
2023/08/28 03:01:19;;;;;;;7.30;1.75;;;;;;;14.90;100.00;100445.91;5100474;28;20052;-66
2023/08/28 03:03:46;;;;;;;11.13;2.10;;;;;;;15.04;100.00;100439.78;5090911;28;20067;-67
2023/08/28 03:06:14;;;;;;;8.05;2.15;;;;;;;14.96;100.00;100435.00;5107002;28;20393;-67
2023/08/28 03:08:40;;;;;;;5.95;1.70;;;;;;;14.95;100.00;100427.19;5108023;28;20440;-66
2023/08/28 03:11:07;;;;;;;5.45;1.33;;;;;;;15.07;100.00;100428.19;5099825;28;20564;-66
2023/08/28 03:13:34;;;;;;;9.80;1.92;;;;;;;14.97;100.00;100439.31;5102626;28;20059;-66
2023/08/28 03:16:02;;;;;;;10.32;1.90;;;;;;;14.91;100.00;100436.19;5111741;28;20054;-67
2023/08/28 03:18:29;;;;;;;7.15;1.70;;;;;;;14.77;100.00;100427.34;5096549;28;20105;-67
2023/08/28 03:20:55;;;;;;;12.15;1.65;;;;;;;14.86;100.00;100436.50;5111135;28;20044;-67
2023/08/28 03:23:22;;;;;;;8.10;2.10;;;;;;;14.82;100.00;100424.44;5105216;28;20504;-67
2023/08/28 03:25:50;;;;;;;5.75;1.63;;;;;;;14.75;100.00;100431.88;5110305;28;20058;-67
2023/08/28 03:28:17;;;;;;;7.97;1.90;;;;;;;14.81;100.00;100428.00;5127640;27;20718;-67
2023/08/28 03:30:44;;;;;;;6.85;1.67;;;;;;;14.76;100.00;100425.63;5107590;28;20054;-67
2023/08/28 03:33:11;;;;;;;7.22;1.70;;;;;;;14.77;100.00;100439.69;5099865;28;20408;-67
2023/08/28 03:35:38;;;;;;;4.38;1.50;;;;;;;14.66;100.00;100427.16;5110159;28;20068;-66
2023/08/28 03:38:05;;;;;;;6.00;1.55;;;;;;;14.74;100.00;100424.06;5104448;28;20055;-67
2023/08/28 03:40:35;;;;;;;7.57;1.60;;;;;;;14.69;100.00;100426.94;5094493;28;20066;-67
2023/08/28 03:43:03;;;;;;;6.95;1.60;;;;;;;14.75;100.00;100436.25;5101072;28;20042;-66
2023/08/28 03:45:33;;;;;;;6.97;1.58;;;;;;;14.75;100.00;100426.59;5110674;28;20047;-66
2023/08/28 03:48:00;;;;;;;3.22;1.30;;;;;;;14.81;100.00;100434.13;5111017;28;20055;-66
2023/08/28 03:50:30;;;;;;;7.25;1.63;;;;;;;14.79;100.00;100440.44;5110077;28;20105;-66
2023/08/28 03:53:00;;;;;;;4.85;1.20;;;;;;;14.89;100.00;100443.34;5095507;28;20048;-67
2023/08/28 03:55:29;;;;;;;3.90;1.27;;;;;;;14.88;100.00;100439.88;5101310;28;20051;-66
2023/08/28 03:58:02;;;;;;;3.70;1.55;;;;;;;14.86;100.00;100446.19;5108900;28;20500;-66
2023/08/28 04:00:32;;;;;;;5.28;1.35;;;;;;;14.66;100.00;100431.56;5110710;28;20087;-66
2023/08/28 04:03:03;;;;;;;5.13;1.50;;;;;;;14.72;100.00;100431.19;5102624;28;20125;-67
2023/08/28 04:05:32;;;;;;;6.18;1.58;;;;;;;14.58;100.00;100432.84;5088542;28;20056;-67
2023/08/28 04:08:00;;;;;;;7.18;1.58;;;;;;;14.56;100.00;100439.13;5102345;28;20142;-66
2023/08/28 04:10:27;;;;;;;5.95;1.40;;;;;;;14.49;100.00;100436.00;5108280;28;20138;-66
2023/08/28 04:12:53;;;;;;;7.10;1.75;;;;;;;14.48;100.00;100428.19;5108757;28;20043;-67
2023/08/28 04:15:20;;;;;;;5.72;1.63;;;;;;;14.58;100.00;100434.66;5110377;28;20054;-67
2023/08/28 04:17:47;;;;;;;3.53;1.27;;;;;;;14.49;100.00;100428.09;5104604;28;20586;-67
2023/08/28 04:20:15;;;;;;;4.28;1.10;;;;;;;14.50;100.00;100442.13;5108356;28;20510;-66
2023/08/28 04:22:46;;;;;;;4.13;1.40;;;;;;;14.47;100.00;100429.16;5112969;27;20382;-67
2023/08/28 04:25:13;;;;;;;4.35;1.42;;;;;;;14.53;100.00;100441.94;5100730;28;20048;-67
2023/08/28 04:27:40;;;;;;;4.72;1.23;;;;;;;14.53;100.00;100436.69;5095815;28;20059;-66
2023/08/28 04:30:12;;;;;;;6.00;1.77;;;;;;;14.58;100.00;100440.75;5089427;28;20401;-67
2023/08/28 04:32:39;;;;;;;4.80;1.20;;;;;;;14.57;100.00;100433.78;5105290;28;20046;-67
2023/08/28 04:35:07;;;;;;;6.90;1.50;;;;;;;14.54;100.00;100433.13;5109457;28;20052;-66
2023/08/28 04:37:34;;;;;;;5.38;1.30;;;;;;;14.37;100.00;100431.47;5095579;28;20056;-66
2023/08/28 04:40:00;;;;;;;10.50;2.05;;;;;;;14.28;100.00;100438.09;5108007;28;20436;-66
2023/08/28 04:42:27;;;;;;;6.05;1.35;;;;;;;14.24;100.00;100436.59;5096876;28;20079;-66
2023/08/28 04:44:55;;;;;;;6.93;1.50;;;;;;;14.45;100.00;100452.94;5102035;28;20412;-67
2023/08/28 04:47:23;;;;;;;8.20;1.67;;;;;;;14.33;100.00;100436.06;5102490;28;20139;-67
2023/08/28 04:49:49;;;;;;;7.15;1.73;;;;;;;14.37;100.00;100434.09;5090134;28;20056;-66
2023/08/28 04:52:16;;;;;;;7.30;1.67;;;;;;;14.43;100.00;100436.38;5097217;28;20081;-67
2023/08/28 04:54:43;;;;;;;4.93;1.58;;;;;;;14.48;100.00;100436.94;5103634;28;20047;-67
2023/08/28 04:57:09;;;;;;;5.82;1.50;;;;;;;14.53;100.00;100434.88;5093862;28;20040;-67
2023/08/28 04:59:36;;;;;;;5.40;1.40;;;;;;;14.56;100.00;100442.59;5103927;28;20044;-67
2023/08/28 05:02:03;;;;;;;6.63;1.52;;;;;;;14.51;100.00;100452.56;5111286;28;20384;-67
2023/08/28 05:04:30;;;;;;;5.03;1.30;;;;;;;14.44;100.00;100438.06;5113216;28;20048;-67
2023/08/28 05:06:56;;;;;;;6.35;1.55;;;;;;;14.62;100.00;100462.50;5102784;28;20059;-67
2023/08/28 05:09:23;;;;;;;5.63;1.60;;;;;;;14.59;100.00;100457.44;5102590;28;20134;-66
2023/08/28 05:11:50;;;;;;;6.43;1.55;;;;;;;14.61;100.00;100458.19;5106126;28;20436;-67
2023/08/28 05:14:16;;;;;;;5.50;1.67;;;;;;;14.58;100.00;100464.47;5104577;28;20062;-67
2023/08/28 05:16:43;;;;;;;10.57;2.00;;;;;;;14.57;100.00;100472.44;5101057;28;20130;-66
2023/08/28 05:19:09;;;;;;;6.38;1.63;;;;;;;14.58;100.00;100472.38;5112105;28;20047;-66
2023/08/28 05:21:36;;;;;;;6.70;1.98;;;;;;;14.53;100.00;100470.91;5112185;28;20054;-67
2023/08/28 05:24:03;;;;;;;5.50;1.55;;;;;;;14.40;100.00;100470.78;5100324;28;20052;-67
2023/08/28 05:26:30;;;;;;;5.50;1.30;;;;;;;14.44;100.00;100470.50;5096861;28;20052;-67
2023/08/28 05:28:56;;;;;;;5.70;1.52;;;;;;;14.60;100.00;100470.50;5103231;28;20611;-67
2023/08/28 05:31:23;;;;;;;6.25;1.30;;;;;;;14.59;100.00;100474.09;5108217;28;20058;-67
2023/08/28 05:33:50;;;;;;;9.48;2.15;;;;;;;14.75;100.00;100460.84;5104206;28;20519;-67
2023/08/28 05:36:17;;;;;;;4.97;1.40;;;;;;;14.62;100.00;100454.59;5106907;28;20055;-66
2023/08/28 05:38:43;;;;;;;8.25;1.90;;;;;;;14.48;100.00;100455.38;5102143;28;20052;-67
2023/08/28 05:41:10;;;;;;;10.13;1.60;;;;;;;14.19;100.00;100455.28;5111671;28;20047;-66
2023/08/28 05:43:37;;;;;;;11.32;1.83;;;;;;;14.29;100.00;100467.91;5098736;28;20054;-67
2023/08/28 05:46:07;;;;;;;6.22;2.03;;;;;;;14.31;100.00;100452.91;5106589;28;20405;-67
2023/08/28 05:48:35;;;;;;;8.32;3.65;;;;;;;14.26;100.00;100470.75;5126232;27;20048;-66
2023/08/28 05:51:03;;;;;;;7.70;1.65;;;;;;;14.23;100.00;100469.13;5113186;27;20407;-66
2023/08/28 05:53:29;;;;;;;11.00;2.28;;;;;;;14.17;100.00;100453.69;5093509;28;20156;-66
2023/08/28 05:55:56;;;;;;;6.22;1.58;;;;;;;14.17;100.00;100478.22;5099641;28;20040;-66
2023/08/28 05:58:23;;;;;;;9.40;2.35;;;;;;;14.10;100.00;100470.75;5110892;28;20427;-66
2023/08/28 06:00:49;;;;;;;5.93;1.50;;;;;;;14.20;100.00;100480.69;5100175;28;20052;-67
2023/08/28 06:03:18;;;;;;;5.38;1.42;;;;;;;14.20;100.00;100479.81;5109267;28;20139;-67
2023/08/28 06:05:48;;;;;;;4.55;1.40;;;;;;;14.33;100.00;100478.19;5110777;28;20138;-67
2023/08/28 06:08:16;;;;;;;7.95;1.73;;;;;;;14.28;100.00;100482.88;5101422;28;20047;-66
2023/08/28 06:10:43;;;;;;;9.05;1.67;;;;;;;14.17;100.00;100480.00;5109345;28;20051;-66
2023/08/28 06:13:10;;;;;;;10.18;2.10;;;;;;;14.10;100.00;100476.88;5110060;28;20481;-67
2023/08/28 06:15:36;;;;;;;7.20;2.00;;;;;;;14.31;100.00;100487.13;5110437;28;20051;-66
2023/08/28 06:18:04;;;;;;;7.50;1.67;;;;;;;14.46;100.00;100473.06;5098748;28;20053;-67
2023/08/28 06:20:31;;;;;;;7.45;1.92;;;;;;;14.59;100.00;100489.06;5107272;28;20138;-67
2023/08/28 06:22:58;;;;;;;6.03;1.40;;;;;;;14.51;100.00;100483.34;5093486;28;20409;-67
2023/08/28 06:25:24;;;;;;;6.95;1.52;;;;;;;14.79;100.00;100493.97;5106322;28;20536;-67
2023/08/28 06:27:51;;;;;;;4.45;1.20;;;;;;;14.93;100.00;100485.25;5110698;28;20051;-67
2023/08/28 06:30:19;;;;;;;6.25;1.52;;;;;;;14.74;100.00;100487.28;5110787;28;20603;-67
2023/08/28 06:32:46;;;;;;;6.13;1.80;;;;;;;14.94;100.00;100486.97;5109677;28;20126;-67
2023/08/28 06:35:12;;;;;;;4.65;1.33;;;;;;;15.08;100.00;100480.00;5107281;28;20463;-67
2023/08/28 06:37:39;;;;;;;6.47;1.60;;;;;;;15.45;100.00;100480.38;5126905;27;20507;-67
2023/08/28 06:40:08;;;;;;;4.68;1.48;;;;;;;15.56;100.00;100485.84;5111871;28;20401;-66
2023/08/28 06:42:36;;;;;;;5.32;1.40;;;;;;;15.83;100.00;100485.06;5102678;28;20505;-66
2023/08/28 06:45:03;;;;;;;5.15;1.40;;;;;;;16.18;100.00;100472.25;5100957;28;20079;-66
2023/08/28 06:47:30;;;;;;;7.20;1.48;;;;;;;16.59;100.00;100487.19;5110091;28;20052;-67
2023/08/28 06:49:57;;;;;;;4.18;1.58;;;;;;;16.77;100.00;100484.22;5103200;28;20131;-67
2023/08/28 06:52:23;;;;;;;6.97;1.77;;;;;;;16.89;100.00;100492.22;5097999;28;20043;-67
2023/08/28 06:54:50;;;;;;;5.75;1.65;;;;;;;16.94;100.00;100491.88;5095745;28;20044;-67
2023/08/28 06:57:18;;;;;;;10.98;2.65;;;;;;;16.90;100.00;100503.63;5103289;28;20047;-67
2023/08/28 06:59:45;;;;;;;7.20;1.60;;;;;;;17.22;100.00;100498.78;5102722;28;20453;-67
2023/08/28 07:02:12;;;;;;;5.57;1.60;;;;;;;17.58;100.00;100504.25;5104533;28;20390;-67
2023/08/28 07:04:39;;;;;;;6.70;1.65;;;;;;;17.30;100.00;100505.34;5106017;28;20047;-67
2023/08/28 07:07:05;;;;;;;5.80;1.42;;;;;;;16.74;100.00;100510.88;5110524;28;20043;-67
2023/08/28 07:09:33;;;;;;;6.72;1.60;;;;;;;16.65;100.00;100507.06;5109949;28;20051;-67
2023/08/28 07:11:59;;;;;;;5.13;1.38;;;;;;;16.57;100.00;100498.78;5097103;28;20051;-66
2023/08/28 07:14:26;;;;;;;5.78;1.65;;;;;;;16.92;100.00;100511.47;5103613;28;20044;-67
2023/08/28 07:16:53;;;;;;;6.93;1.45;;;;;;;17.00;100.00;100496.78;5108752;28;20134;-67
2023/08/28 07:19:19;;;;;;;9.10;1.95;;;;;;;17.04;100.00;100506.19;5110914;28;20504;-66
2023/08/28 07:21:46;;;;;;;8.23;1.55;;;;;;;16.85;100.00;100506.59;5106320;28;20556;-67
2023/08/28 07:24:13;;;;;;;5.55;1.25;;;;;;;16.81;100.00;100502.44;5110282;28;20040;-66
2023/08/28 07:26:39;;;;;;;5.53;1.45;;;;;;;17.07;100.00;100495.41;5110713;28;20054;-66
2023/08/28 07:29:07;;;;;;;6.15;1.40;;;;;;;17.64;100.00;100511.78;5110733;28;20424;-67
2023/08/28 07:31:34;;;;;;;7.32;1.55;;;;;;;17.69;100.00;100503.50;5105736;28;20044;-67
2023/08/28 07:34:03;;;;;;;4.72;1.40;;;;;;;17.59;100.00;100506.78;5109007;28;20055;-67
2023/08/28 07:36:30;;;;;;;7.57;1.60;;;;;;;17.70;100.00;100505.19;5099152;28;20052;-67
2023/08/28 07:38:57;;;;;;;4.97;1.27;;;;;;;17.33;100.00;100505.13;5110195;28;20047;-66
2023/08/28 07:41:24;;;;;;;7.55;1.50;;;;;;;17.64;100.00;100506.47;5108610;28;20487;-67
2023/08/28 07:43:50;;;;;;;7.57;1.88;;;;;;;17.56;100.00;100500.88;5106477;28;20055;-67
2023/08/28 07:46:17;;;;;;;8.68;2.08;;;;;;;17.93;100.00;100506.22;5110339;28;20496;-67
2023/08/28 07:48:44;;;;;;;7.07;1.83;;;;;;;17.99;100.00;100513.75;5111052;28;20444;-68
2023/08/28 07:51:10;;;;;;;4.95;1.45;;;;;;;18.26;100.00;100502.09;5105232;28;20473;-67
2023/08/28 07:53:38;;;;;;;6.60;2.22;;;;;;;18.57;100.00;100514.75;5108458;28;20070;-67
2023/08/28 07:56:04;;;;;;;8.60;1.80;;;;;;;18.37;100.00;100499.47;5097437;28;20052;-67
2023/08/28 07:58:32;;;;;;;6.00;1.77;;;;;;;18.35;100.00;100501.41;5108648;28;20048;-67
2023/08/28 08:00:59;;;;;;;11.38;2.58;;;;;;;17.90;100.00;100499.34;5104721;28;20046;-66
2023/08/28 08:03:27;;;;;;;8.50;1.83;;;;;;;18.07;100.00;100487.53;5107904;28;20043;-67
2023/08/28 08:05:54;;;;;;;7.05;1.70;;;;;;;18.07;100.00;100490.16;5090067;28;20154;-66
2023/08/28 08:08:21;;;;;;;8.30;1.70;;;;;;;17.94;100.00;100495.53;5093058;28;20507;-67
2023/08/28 08:10:48;;;;;;;4.85;1.63;;;;;;;17.82;100.00;100501.66;5108102;28;20419;-67
2023/08/28 08:13:17;;;;;;;5.30;1.27;;;;;;;17.55;100.00;100501.84;5097954;28;20054;-67
2023/08/28 08:15:44;;;;;;;5.93;1.70;;;;;;;17.67;100.00;100497.47;5110141;28;20047;-67
2023/08/28 08:18:10;;;;;;;5.38;1.20;;;;;;;17.80;100.00;100499.13;5108054;28;20048;-67
2023/08/28 08:20:37;;;;;;;7.88;1.35;;;;;;;17.72;100.00;100513.88;5109256;28;20052;-68
2023/08/28 08:23:04;;;;;;;7.90;1.70;;;;;;;17.65;100.00;100506.38;5106584;28;20044;-67
2023/08/28 08:25:33;;;;;;;9.60;1.80;;;;;;;17.41;100.00;100497.50;5108729;28;20052;-68
2023/08/28 08:28:02;;;;;;;8.20;1.55;;;;;;;17.63;100.00;100504.78;5108497;28;20520;-67
2023/08/28 08:30:29;;;;;;;9.13;2.03;;;;;;;17.62;100.00;100516.34;5108527;28;20051;-67
2023/08/28 08:32:56;;;;;;;6.60;1.33;;;;;;;17.45;100.00;100510.41;5109516;28;20048;-67
2023/08/28 08:35:24;;;;;;;9.98;1.70;;;;;;;17.35;100.00;100519.97;5105838;28;20048;-68
2023/08/28 08:37:52;;;;;;;5.95;1.63;;;;;;;17.38;100.00;100518.88;5100388;28;20056;-66
2023/08/28 08:40:24;;;;;;;8.63;1.60;;;;;;;17.31;100.00;100528.22;5108398;27;20056;-67
2023/08/28 08:42:52;;;;;;;5.72;1.60;;;;;;;17.17;100.00;100526.50;5108202;28;20485;-67
2023/08/28 08:45:28;;;;;;;7.13;1.30;;;;;;;16.97;100.00;100520.78;5107564;28;20493;-67
2023/08/28 08:47:58;;;;;;;7.03;1.30;;;;;;;16.98;100.00;100532.19;5098350;28;20055;-67
2023/08/28 08:50:26;;;;;;;7.72;1.40;;;;;;;17.01;100.00;100532.00;5106533;28;20435;-66
2023/08/28 08:52:58;;;;;;;6.32;1.42;;;;;;;17.07;100.00;100528.94;5105159;28;20044;-66
2023/08/28 08:55:39;;;;;;;4.93;1.30;;;;;;;17.32;100.00;100527.28;5108517;28;20481;-66
2023/08/28 08:58:10;;;;;;;5.63;1.35;;;;;;;17.37;100.00;100533.94;5107147;28;20062;-67
2023/08/28 09:00:38;;;;;;;6.20;1.48;;;;;;;17.59;100.00;100533.25;5107306;28;20565;-66
2023/08/28 09:03:08;;;;;;;5.15;1.40;;;;;;;17.35;100.00;100530.56;5097123;28;20097;-66
2023/08/28 09:05:36;;;;;;;5.53;1.42;;;;;;;17.58;100.00;100533.38;5109763;28;20491;-67
2023/08/28 09:08:06;;;;;;;6.75;1.70;;;;;;;17.21;100.00;100514.75;5108741;28;20047;-67
2023/08/28 09:10:33;;;;;;;6.22;1.83;;;;;;;17.17;100.00;100530.00;5109732;28;20097;-67
2023/08/28 09:13:00;;;;;;;5.20;1.65;;;;;;;17.41;100.00;100534.56;5099584;28;20121;-66
2023/08/28 09:15:27;;;;;;;5.78;1.45;;;;;;;17.62;100.00;100517.19;5109939;28;20080;-66
2023/08/28 09:17:54;;;;;;;6.43;1.70;;;;;;;17.73;100.00;100536.75;5108971;28;20476;-66
2023/08/28 09:20:21;;;;;;;5.72;1.48;;;;;;;18.11;100.00;100522.59;5109625;28;20043;-66
2023/08/28 09:22:53;;;;;;;7.25;1.60;;;;;;;18.18;100.00;100521.19;5105425;28;20051;-67
2023/08/28 09:25:22;;;;;;;4.33;1.30;;;;;;;18.58;100.00;100531.50;5107107;28;20043;-67
2023/08/28 09:27:52;;;;;;;9.75;1.48;;;;;;;18.73;100.00;100525.06;5107757;28;20047;-67
2023/08/28 09:30:36;;;;;;;4.45;1.13;;;;;;;19.21;100.00;100524.13;5101478;28;20044;-66
2023/08/28 09:33:07;;;;;;;2.97;1.02;;;;;;;19.41;100.00;100525.22;5089121;28;20055;-67
2023/08/28 09:35:38;;;;;;;3.93;1.20;;;;;;;19.00;100.00;100533.69;5101171;28;20560;-66
2023/08/28 09:38:05;;;;;;;6.22;1.67;;;;;;;18.77;100.00;100525.69;5095103;28;20083;-67
2023/08/28 09:40:36;;;;;;;4.75;1.42;;;;;;;18.73;100.00;100526.84;5108740;28;20056;-67
2023/08/28 09:43:13;;;;;;;6.32;1.63;;;;;;;18.53;100.00;100518.56;5100000;28;20056;-68
2023/08/28 09:45:41;;;;;;;3.15;0.98;;;;;;;18.69;100.00;100523.59;5100823;28;20051;-68
2023/08/28 09:48:09;;;;;;;4.50;1.27;;;;;;;18.56;100.00;100513.06;5096358;28;20059;-68
2023/08/28 09:50:41;;;;;;;4.85;1.25;;;;;;;18.76;100.00;100516.84;5110292;28;20453;-68
2023/08/28 09:53:12;;;;;;;3.65;1.15;;;;;;;18.54;100.00;100522.94;5096631;28;20036;-68
2023/08/28 09:55:46;;;;;;;12.02;2.22;;;;;;;17.74;100.00;100514.59;5098340;28;20092;-68
2023/08/28 09:58:13;;;;;;;4.25;1.20;;;;;;;17.48;100.00;100519.94;5109404;28;20073;-68
2023/08/28 10:00:40;;;;;;;3.90;1.00;;;;;;;17.51;100.00;100517.09;5110320;28;20047;-68
2023/08/28 10:03:08;;;;;;;5.25;1.30;;;;;;;17.31;100.00;100514.97;5109829;28;20048;-67
2023/08/28 10:05:44;;;;;;;6.35;1.33;;;;;;;17.72;100.00;100514.69;5111429;28;20140;-67
2023/08/28 10:08:12;;;;;;;5.22;1.10;;;;;;;17.80;100.00;100519.47;5094772;28;20051;-68
2023/08/28 10:10:42;;;;;;;5.88;1.15;;;;;;;18.16;100.00;100515.16;5101239;28;20079;-68
2023/08/28 10:13:14;;;;;;;3.00;0.90;;;;;;;18.63;100.00;100525.84;5112110;28;20043;-68
2023/08/28 10:15:53;;;;;;;4.73;0.90;;;;;;;18.58;100.00;100532.34;5113321;28;20415;-68
2023/08/28 10:18:25;;;;;;;2.90;0.90;;;;;;;18.13;100.00;100537.44;5111093;28;20279;-68
2023/08/28 10:20:53;;;;;;;3.53;1.07;;;;;;;18.12;100.00;100540.19;5113294;28;20050;-68
2023/08/28 10:23:22;;;;;;;3.65;1.10;;;;;;;17.97;100.00;100529.75;5112267;28;20502;-67
2023/08/28 10:25:52;;;;;;;4.45;1.40;;;;;;;17.97;100.00;100534.16;5112705;28;20512;-68
2023/08/28 10:28:21;;;;;;;3.15;1.00;;;;;;;17.43;100.00;100512.31;5099152;28;20370;-67
2023/08/28 10:30:50;;;;;;;6.18;1.10;;;;;;;17.49;100.00;100518.13;5101000;28;20058;-67
2023/08/28 10:33:22;;;;;;;3.40;0.82;;;;;;;18.07;100.00;100537.84;5110500;28;20047;-67
2023/08/28 10:35:52;;;;;;;3.00;1.02;;;;;;;17.77;100.00;100543.50;5107245;28;20184;-67
2023/08/28 10:38:22;;;;;;;6.03;1.30;;;;;;;17.56;100.00;100522.03;5106657;28;20134;-67
2023/08/28 10:40:53;;;;;;;2.70;0.90;;;;;;;17.66;100.00;100517.81;5111854;28;20062;-67
2023/08/28 10:43:22;;;;;;;1.85;0.80;;;;;;;18.21;100.00;100505.91;5111422;28;20055;-67
2023/08/28 10:45:51;;;;;;;4.50;1.10;;;;;;;18.48;100.00;100509.28;5112602;28;20148;-67
2023/08/28 10:48:18;;;;;;;2.45;0.90;;;;;;;18.05;100.00;100496.56;5112358;28;20101;-67
2023/08/28 10:50:45;;;;;;;2.35;0.80;;;;;;;18.12;100.00;100501.28;5111651;28;20055;-67
2023/08/28 10:53:15;;;;;;;3.00;0.90;;;;;;;18.26;100.00;100499.44;5111275;28;20063;-67
2023/08/28 10:55:56;;;;;;;4.85;1.08;;;;;;;18.38;100.00;100507.31;5100089;27;20066;-67
2023/08/28 10:58:23;;;;;;;2.85;0.95;;;;;;;18.49;100.00;100500.38;5097367;28;20054;-67
2023/08/28 11:01:18;;;;;;;1.30;0.73;;;;;;;18.56;100.00;100507.75;5111312;28;20159;-67
2023/08/28 11:03:58;;;;;;;3.70;0.82;;;;;;;18.96;100.00;100511.88;5100301;28;20051;-68
2023/08/28 11:06:41;;;;;;;1.35;0.70;;;;;;;18.98;100.00;100512.59;5105462;28;20058;-68
2023/08/28 11:09:29;;;;;;;2.28;0.65;;;;;;;18.79;100.00;100513.97;5092051;28;20070;-67
2023/08/28 11:12:01;;;;;;;1.65;0.75;;;;;;;18.84;100.00;100524.28;5104708;28;20055;-67
2023/08/28 11:14:33;;;;;;;4.13;0.80;;;;;;;18.75;100.00;100511.66;5105652;28;20411;-68
2023/08/28 11:17:19;;;;;;;2.35;0.80;;;;;;;19.29;100.00;100519.03;5104084;27;20125;-68
2023/08/28 11:19:54;;;;;;;1.20;0.60;;;;;;;19.24;100.00;100517.72;5104361;28;20059;-67
2023/08/28 11:22:46;;;;;;;2.03;0.70;;;;;;;19.33;100.00;100517.81;5110032;28;20131;-67
2023/08/28 11:25:34;;;;;;;2.45;0.80;;;;;;;19.31;100.00;100513.63;5123632;27;20063;-67